createdAt,value
2018-09-24T00:12:51.482Z,10.44
2018-09-24T00:12:51.604Z,6.87
2018-09-24T00:12:51.612Z,6.87
2018-09-24T00:12:51.666Z,6.87
2018-09-24T00:18:46.499Z,11.47
2018-09-24T00:24:41.495Z,9.77
2018-09-24T00:30:36.492Z,9.06
2018-09-24T00:36:31.479Z,8.01
2018-09-24T00:42:26.509Z,8.8
2018-09-24T00:48:21.450Z,11.5
2018-09-24T00:54:16.438Z,9.44
2018-09-24T01:00:11.522Z,8.52
2018-09-24T01:06:06.467Z,11.25
2018-09-24T01:12:01.485Z,7.46
2018-09-24T01:17:56.524Z,11.22
2018-09-24T01:23:51.508Z,8.14
2018-09-24T01:29:46.471Z,9.53
2018-09-24T01:35:41.475Z,9.55
2018-09-24T01:41:36.501Z,12.8
2018-09-24T01:47:31.510Z,13.72
2018-09-24T01:53:26.493Z,8.53
2018-09-24T01:59:21.671Z,12.25
2018-09-24T02:05:16.562Z,8.74
2018-09-24T02:11:11.484Z,10.49
2018-09-24T02:17:06.498Z,10.79
2018-09-24T02:23:01.506Z,10.07
2018-09-24T02:28:56.495Z,8.84
2018-09-24T02:34:51.509Z,12.45
2018-09-24T02:40:46.518Z,12.15
2018-09-24T02:46:41.538Z,10.23
2018-09-24T03:16:16.526Z,11.7
2018-09-24T03:16:16.666Z,9.88
2018-09-24T03:16:16.679Z,8.36
2018-09-24T03:16:16.719Z,9.88
2018-09-24T03:22:11.541Z,9.76
2018-09-24T03:28:06.498Z,9.71
2018-09-24T03:34:01.534Z,8.22
2018-09-24T03:39:56.526Z,11.19
2018-09-24T03:45:51.520Z,13.19
2018-09-24T03:51:46.515Z,11.73
2018-09-24T03:57:41.589Z,10.53
2018-09-24T04:03:36.538Z,7.92
2018-09-24T04:09:31.553Z,7.96
2018-09-24T04:15:26.556Z,8.87
2018-09-24T04:21:21.593Z,11.89
2018-09-24T04:27:16.519Z,10.06
2018-09-24T04:33:11.589Z,9.44
2018-09-24T04:39:06.564Z,13.72
2018-09-24T04:45:01.554Z,11.11
2018-09-24T04:50:56.588Z,9.86
2018-09-24T04:56:51.598Z,9.47
2018-09-24T05:02:46.533Z,8.19
2018-09-24T05:08:41.581Z,7.47
2018-09-24T05:14:36.565Z,11.63
2018-09-24T05:20:31.549Z,10.07
2018-09-24T05:26:26.623Z,9.26
2018-09-24T05:32:21.623Z,9.39
2018-09-24T05:38:16.547Z,9.28
2018-09-24T05:44:11.639Z,10.36
2018-09-24T05:50:06.610Z,18.28
2018-09-24T06:13:46.903Z,21.9
2018-09-24T06:13:46.903Z,21.9
2018-09-24T06:13:46.962Z,23.58
2018-09-24T06:13:46.977Z,21.9
2018-09-24T06:19:41.586Z,22.95
2018-09-24T06:25:36.583Z,26.73
2018-09-24T06:31:31.584Z,22.71
2018-09-24T06:37:26.580Z,17.8
2018-09-24T06:43:21.581Z,14.34
2018-09-24T06:49:16.586Z,14.45
2018-09-24T06:55:11.596Z,12.34
2018-09-24T07:01:08.476Z,13.29
2018-09-24T07:07:01.600Z,12.14
2018-09-24T07:12:56.601Z,11.12
2018-09-24T07:18:51.605Z,9.83
2018-09-24T07:24:46.583Z,13.66
2018-09-24T07:30:46.202Z,8.94
2018-09-24T07:36:40.701Z,14.3
2018-09-24T07:42:31.615Z,9.95
2018-09-24T07:48:26.596Z,9.3
2018-09-24T07:54:22.621Z,11.76
2018-09-24T08:00:20.726Z,9.03
2018-09-24T08:06:12.056Z,11.81
2018-09-24T08:12:10.677Z,16.64
2018-09-24T08:18:01.638Z,23.59
2018-09-24T08:23:56.629Z,32.78
2018-09-24T08:29:51.641Z,36.22
2018-09-24T08:35:46.606Z,18.2
2018-09-24T08:41:41.624Z,25.93
2018-09-24T08:47:36.628Z,25.62
2018-09-24T09:17:11.665Z,13.2
2018-09-24T09:17:15.852Z,11
2018-09-24T09:17:15.918Z,11
2018-09-24T09:17:16.025Z,11
2018-09-24T09:23:06.660Z,10.04
2018-09-24T09:29:01.632Z,7.44
2018-09-24T09:34:56.712Z,7.67
2018-09-24T09:40:51.651Z,8.54
2018-09-24T09:46:46.763Z,11.03
2018-09-24T09:52:41.638Z,8.73
2018-09-24T09:58:36.671Z,12.74
2018-09-24T10:04:31.668Z,10.04
2018-09-24T10:10:26.679Z,11.97
2018-09-24T10:16:21.670Z,10.08
2018-09-24T10:22:16.662Z,8.01
2018-09-24T10:28:11.657Z,9.97
2018-09-24T10:34:06.749Z,6.92
2018-09-24T10:40:05.743Z,8.86
2018-09-24T10:45:58.621Z,12.18
2018-09-24T10:51:51.687Z,8.94
2018-09-24T10:57:46.678Z,9.39
2018-09-24T11:03:43.266Z,7.03
2018-09-24T11:09:36.694Z,7.64
2018-09-24T11:15:35.855Z,6.97
2018-09-24T11:21:28.407Z,8.23
2018-09-24T11:27:21.696Z,5.64
2018-09-24T11:33:16.722Z,5.5
2018-09-24T11:39:11.709Z,4.93
2018-09-24T11:45:06.749Z,4.37
2018-09-24T11:51:01.692Z,3.6
2018-09-24T12:14:43.308Z,4.92
2018-09-24T12:14:43.423Z,4.64
2018-09-24T12:14:43.461Z,4.64
2018-09-24T12:14:45.819Z,4.64
2018-09-24T12:20:36.699Z,5.02
2018-09-24T12:26:31.705Z,4.45
2018-09-24T12:32:26.741Z,8.81
2018-09-24T12:38:21.766Z,6.39
2018-09-24T12:44:16.723Z,7.85
2018-09-24T12:50:11.761Z,9.64
2018-09-24T12:56:06.748Z,13.5
2018-09-24T13:02:01.796Z,6.92
2018-09-24T13:08:00.809Z,7.59
2018-09-24T13:13:53.083Z,5.97
2018-09-24T13:19:46.724Z,6.11
2018-09-24T13:25:41.732Z,7.34
2018-09-24T13:31:38.728Z,3.85
2018-09-24T13:37:31.750Z,9.01
2018-09-24T13:43:26.771Z,6.51
2018-09-24T13:49:21.832Z,5.38
2018-09-24T13:55:16.759Z,3.39
2018-09-24T14:01:11.834Z,4.4
2018-09-24T14:07:06.785Z,3.15
2018-09-24T14:13:01.756Z,2.03
2018-09-24T14:18:56.745Z,2.8
2018-09-24T14:24:52.905Z,4.52
2018-09-24T14:30:46.812Z,2.76
2018-09-24T14:36:41.760Z,3.39
2018-09-24T14:42:36.764Z,2.6
2018-09-24T14:48:31.802Z,2.95
2018-09-24T15:18:06.789Z,3.17
2018-09-24T15:18:06.920Z,3.19
2018-09-24T15:18:06.922Z,3.19
2018-09-24T15:18:06.976Z,3.19
2018-09-24T15:24:05.882Z,2.87
2018-09-24T15:29:56.805Z,5.14
2018-09-24T15:35:51.829Z,2.76
2018-09-24T15:41:46.836Z,3.77
2018-09-24T15:47:43.056Z,1.82
2018-09-24T15:53:36.836Z,2.88
2018-09-24T15:59:31.804Z,2.15
2018-09-24T16:05:26.795Z,1.41
2018-09-24T16:11:23.596Z,1.82
2018-09-24T16:17:16.851Z,1.93
2018-09-24T16:23:13.526Z,2.67
2018-09-24T16:29:06.802Z,3.58
2018-09-24T16:35:01.870Z,2.15
2018-09-24T16:41:00.869Z,4.66
2018-09-24T16:46:51.803Z,2.77
2018-09-24T16:52:46.846Z,3.49
2018-09-24T16:58:41.895Z,1.58
2018-09-24T17:04:36.889Z,3.47
2018-09-24T17:10:33.197Z,3.15
2018-09-24T17:16:26.794Z,2.12
2018-09-24T17:22:21.842Z,2.1
2018-09-24T17:28:16.854Z,2.77
2018-09-24T17:34:11.831Z,1.98
2018-09-24T17:40:10.951Z,4.16
2018-09-24T17:46:01.897Z,2.07
2018-09-24T17:51:56.833Z,4.48
2018-09-24T18:15:38.259Z,3.6
2018-09-24T18:15:38.283Z,2.73
2018-09-24T18:15:38.343Z,2.73
2018-09-24T18:15:40.956Z,2.73
2018-09-24T18:21:31.850Z,4.14
2018-09-24T18:27:26.849Z,12.64
2018-09-24T18:33:21.868Z,2.26
2018-09-24T18:39:16.847Z,2.56
2018-09-24T18:45:11.865Z,10.25
2018-09-24T18:51:06.876Z,1.67
2018-09-24T18:57:01.932Z,2.45
2018-09-24T19:02:56.842Z,1.74
2018-09-24T19:08:51.890Z,3.11
2018-09-24T19:14:46.843Z,5.67
2018-09-24T19:20:43.314Z,1.71
2018-09-24T19:26:36.833Z,4.6
2018-09-24T19:32:31.846Z,1.54
2018-09-24T19:38:26.861Z,4.25
2018-09-24T19:44:21.859Z,2.58
2018-09-24T19:50:16.879Z,3.74
2018-09-24T19:56:11.854Z,6.22
2018-09-24T20:02:07.065Z,1.47
2018-09-24T20:08:01.847Z,3.16
2018-09-24T20:13:56.903Z,2.22
2018-09-24T20:19:51.878Z,2.68
2018-09-24T20:25:46.847Z,5.03
2018-09-24T20:31:43.238Z,2.6
2018-09-24T20:37:36.924Z,4.29
2018-09-24T20:43:31.861Z,3.21
2018-09-24T20:49:26.864Z,2.53
2018-09-24T20:55:21.869Z,4.26
2018-09-24T21:19:01.883Z,5.29
2018-09-24T21:19:01.960Z,3.06
2018-09-24T21:19:01.965Z,3.06
2018-09-24T21:19:01.996Z,3.06
2018-09-24T21:24:56.935Z,3.97
2018-09-24T21:30:53.026Z,1.36
2018-09-24T21:36:46.925Z,2.19
2018-09-24T21:42:41.908Z,3.37
2018-09-24T21:48:36.894Z,1.72
2018-09-24T21:54:31.995Z,2.57
2018-09-24T22:00:26.880Z,3.47
2018-09-24T22:06:21.861Z,3.6
2018-09-24T22:12:16.879Z,2.1
2018-09-24T22:18:11.955Z,2.25
2018-09-24T22:24:06.863Z,3.14
2018-09-24T22:30:05.999Z,1.95
2018-09-24T22:35:58.121Z,3.45
2018-09-24T22:41:51.852Z,4
2018-09-24T22:47:46.906Z,0.87
2018-09-24T22:53:41.882Z,3.11
2018-09-24T22:59:36.877Z,1.39
2018-09-24T23:05:31.891Z,1.12
2018-09-24T23:11:26.887Z,1.42
2018-09-24T23:17:21.926Z,4.36
2018-09-24T23:23:16.872Z,0.86
2018-09-24T23:29:11.864Z,3.82
2018-09-24T23:35:06.863Z,1.48
2018-09-24T23:41:05.966Z,6.19
2018-09-24T23:46:56.885Z,1.45
2018-09-24T23:52:51.922Z,3.07
